BAW4E KLAX-EGLL
Flight info
| Callsign | BAW4E |
|---|---|
| Flight time | N/A |
| Altitude | 35000 |
| Route | ORCKA5 LAS DCT BCE DCT MBW DCT RAP DCT DPR DCT GABOV DCT GOSEP/N0479F370 DCT FEDDY/M084F370 DCT LIBOR DCT 62N050W 62N040W 61N030W 59N020W DCT AGORI/N0479F370 DCT OSBOX DCT MIMKU DCT KELLY L10 WAL UY53 NUGRA |
| Aircraft | A388/J-SADE2E3FGHIJ3J4J5M1RWXY/LB1D1 |
Departure
| Time | 2026-04-25 20:29 |
|---|---|
| Airport | Los Angeles International Airport (KLAX) |
Arrival
| Time | N/A |
|---|---|
| Airport | London Heathrow Airport (EGLL) |
| Time | Latitude | Longitude | Altitude | Speed | Heading |
|---|---|---|---|---|---|
| 2026-04-25 20:04 | 33.94099 | -118.41092 | 131 ft | 0 kts | 83° |
| 2026-04-25 20:15 | 33.94098 | -118.41094 | 131 ft | 2 kts | 83° |
| 2026-04-25 20:15 | 33.94095 | -118.41124 | 125 ft | 4 kts | 83° |
| 2026-04-25 20:16 | 33.94092 | -118.41156 | 128 ft | 4 kts | 83° |
| 2026-04-25 20:16 | 33.94089 | -118.41180 | 138 ft | 4 kts | 53° |
| 2026-04-25 20:16 | 33.94070 | -118.41192 | 127 ft | 4 kts | 357° |
| 2026-04-25 20:16 | 33.94047 | -118.41189 | 130 ft | 1 kts | 353° |
| 2026-04-25 20:17 | 33.94046 | -118.41189 | 130 ft | 2 kts | 353° |
| 2026-04-25 20:20 | 33.94061 | -118.41191 | 137 ft | 2 kts | 353° |
| 2026-04-25 20:20 | 33.94086 | -118.41195 | 140 ft | 5 kts | 353° |
| 2026-04-25 20:20 | 33.94130 | -118.41202 | 126 ft | 8 kts | 353° |
| 2026-04-25 20:20 | 33.94182 | -118.41209 | 125 ft | 7 kts | 353° |
| 2026-04-25 20:21 | 33.94228 | -118.41216 | 128 ft | 8 kts | 353° |
| 2026-04-25 20:21 | 33.94297 | -118.41225 | 128 ft | 12 kts | 352° |
| 2026-04-25 20:21 | 33.94387 | -118.41240 | 127 ft | 14 kts | 352° |
| 2026-04-25 20:21 | 33.94479 | -118.41255 | 128 ft | 12 kts | 352° |
| 2026-04-25 20:22 | 33.94557 | -118.41267 | 128 ft | 10 kts | 353° |
| 2026-04-25 20:22 | 33.94601 | -118.41273 | 125 ft | 9 kts | 353° |
| 2026-04-25 20:22 | 33.94677 | -118.41284 | 128 ft | 10 kts | 353° |
| 2026-04-25 20:22 | 33.94745 | -118.41293 | 128 ft | 6 kts | 353° |
| 2026-04-25 20:23 | 33.94777 | -118.41287 | 125 ft | 5 kts | 37° |
| 2026-04-25 20:23 | 33.94797 | -118.41243 | 126 ft | 9 kts | 77° |
| 2026-04-25 20:23 | 33.94808 | -118.41160 | 128 ft | 11 kts | 82° |
| 2026-04-25 20:23 | 33.94817 | -118.41063 | 126 ft | 13 kts | 84° |
| 2026-04-25 20:24 | 33.94829 | -118.40948 | 127 ft | 14 kts | 83° |
| 2026-04-25 20:24 | 33.94841 | -118.40825 | 130 ft | 15 kts | 83° |
| 2026-04-25 20:24 | 33.94854 | -118.40695 | 130 ft | 16 kts | 82° |
| 2026-04-25 20:24 | 33.94868 | -118.40560 | 129 ft | 16 kts | 83° |
| 2026-04-25 20:25 | 33.94883 | -118.40423 | 129 ft | 17 kts | 82° |
| 2026-04-25 20:25 | 33.94898 | -118.40281 | 127 ft | 17 kts | 83° |
| 2026-04-25 20:25 | 33.94910 | -118.40157 | 128 ft | 14 kts | 83° |
| 2026-04-25 20:25 | 33.94922 | -118.40037 | 130 ft | 15 kts | 83° |
| 2026-04-25 20:26 | 33.94929 | -118.39976 | 130 ft | 5 kts | 77° |
| 2026-04-25 20:26 | 33.94936 | -118.39953 | 126 ft | 0 kts | 59° |
| 2026-04-25 20:27 | 33.94939 | -118.39947 | 127 ft | 3 kts | 57° |
| 2026-04-25 20:27 | 33.94961 | -118.39922 | 125 ft | 5 kts | 25° |
| 2026-04-25 20:28 | 33.95007 | -118.39916 | 126 ft | 8 kts | 346° |
| 2026-04-25 20:28 | 33.95037 | -118.39947 | 126 ft | 7 kts | 286° |
| 2026-04-25 20:28 | 33.95038 | -118.39992 | 127 ft | 0 kts | 264° |
| 2026-04-25 20:28 | 33.95038 | -118.39993 | 127 ft | 3 kts | 264° |
| 2026-04-25 20:29 | 33.95008 | -118.40285 | 130 ft | 73 kts | 264° |
| 2026-04-25 20:29 | 33.94918 | -118.41157 | 125 ft | 133 kts | 263° |
| 2026-04-25 20:29 | 33.94795 | -118.42422 | 193 ft | 164 kts | 262° |
| 2026-04-25 20:29 | 33.94702 | -118.43754 | 777 ft | 155 kts | 261° |
| 2026-04-25 20:30 | 33.94575 | -118.45061 | 1324 ft | 161 kts | 259° |
| 2026-04-25 20:30 | 33.94414 | -118.46407 | 1829 ft | 164 kts | 259° |
| 2026-04-25 20:30 | 33.94096 | -118.47779 | 2083 ft | 174 kts | 253° |
| 2026-04-25 20:30 | 33.93864 | -118.49161 | 2649 ft | 167 kts | 261° |
| 2026-04-25 20:31 | 33.93731 | -118.50536 | 3046 ft | 170 kts | 262° |
| 2026-04-25 20:31 | 33.93600 | -118.51970 | 3392 ft | 173 kts | 261° |
| 2026-04-25 20:31 | 33.93361 | -118.53404 | 3609 ft | 181 kts | 243° |
| 2026-04-25 20:31 | 33.92486 | -118.54492 | 3837 ft | 183 kts | 211° |
| 2026-04-25 20:32 | 33.91399 | -118.55236 | 4266 ft | 179 kts | 212° |
| 2026-04-25 20:32 | 33.90364 | -118.56129 | 4523 ft | 191 kts | 211° |
| 2026-04-25 20:32 | 33.89184 | -118.57010 | 4754 ft | 210 kts | 212° |
| 2026-04-25 20:32 | 33.87951 | -118.57981 | 5438 ft | 214 kts | 212° |
| 2026-04-25 20:33 | 33.86573 | -118.58676 | 6298 ft | 212 kts | 199° |
| 2026-04-25 20:33 | 33.85132 | -118.58837 | 7221 ft | 210 kts | 170° |
| 2026-04-25 20:33 | 33.83821 | -118.58051 | 7896 ft | 224 kts | 140° |
| 2026-04-25 20:33 | 33.83142 | -118.57049 | 8090 ft | 245 kts | 120° |
| 2026-04-25 20:34 | 33.82789 | -118.54283 | 8735 ft | 265 kts | 79° |
| 2026-04-25 20:34 | 33.83532 | -118.52217 | 9306 ft | 272 kts | 51° |
| 2026-04-25 20:34 | 33.84974 | -118.50746 | 9853 ft | 275 kts | 28° |
| 2026-04-25 20:34 | 33.86631 | -118.49475 | 10142 ft | 293 kts | 33° |
| 2026-04-25 20:35 | 33.88311 | -118.48043 | 10311 ft | 312 kts | 34° |
| 2026-04-25 20:35 | 33.90115 | -118.46447 | 10474 ft | 330 kts | 35° |
| 2026-04-25 20:35 | 33.91975 | -118.44707 | 10623 ft | 348 kts | 41° |
| 2026-04-25 20:35 | 33.93688 | -118.42557 | 10805 ft | 363 kts | 51° |
| 2026-04-25 20:36 | 33.95166 | -118.40029 | 11014 ft | 376 kts | 57° |